createdAt,value
2022-11-05T00:01:21.613Z,100199.50
2022-11-05T00:04:09.524Z,100202.52
2022-11-05T00:06:57.171Z,100204.02
2022-11-05T00:09:30.726Z,100208.49
2022-11-05T00:12:20.864Z,100209.24
2022-11-05T00:15:09.517Z,100209.27
2022-11-05T00:17:40.753Z,100211.23
2022-11-05T00:20:14.076Z,100210.66
2022-11-05T00:23:02.365Z,100216.48
2022-11-05T00:25:32.923Z,100222.25
2022-11-05T00:28:05.352Z,100224.41
2022-11-05T00:30:35.825Z,100222.00
2022-11-05T00:33:06.199Z,100227.49
2022-11-05T00:35:36.514Z,100227.65
2022-11-05T00:38:06.825Z,100227.98
2022-11-05T00:40:37.541Z,100237.30
2022-11-05T00:43:25.325Z,100239.46
2022-11-05T00:45:55.648Z,100245.30
2022-11-05T00:48:43.638Z,100251.72
2022-11-05T00:51:14.110Z,100251.98
2022-11-05T00:53:44.569Z,100258.23
2022-11-05T00:56:15.024Z,100263.09
2022-11-05T00:58:45.451Z,100267.08
2022-11-05T01:01:15.888Z,100267.73
2022-11-05T01:03:51.459Z,100267.97
2022-11-05T01:06:22.403Z,100269.49
2022-11-05T01:08:52.840Z,100269.58
2022-11-05T01:11:33.997Z,100270.35
2022-11-05T01:14:07.665Z,100270.48
2022-11-05T01:16:39.211Z,100267.20
2022-11-05T01:19:11.657Z,100271.63
2022-11-05T01:21:42.064Z,100274.15
2022-11-05T01:24:13.656Z,100271.91
2022-11-05T01:26:44.028Z,100272.50
2022-11-05T01:29:14.610Z,100276.76
2022-11-05T01:31:45.319Z,100282.25
2022-11-05T01:34:15.694Z,100283.36
2022-11-05T01:36:46.070Z,100286.55
2022-11-05T01:39:16.799Z,100286.23
2022-11-05T01:41:47.190Z,100285.90
2022-11-05T01:44:52.497Z,100281.52
2022-11-05T01:47:37.508Z,100283.33
2022-11-05T01:50:27.716Z,100288.70
2022-11-05T01:53:03.655Z,100291.57
2022-11-05T01:55:38.103Z,100294.25
2022-11-05T01:58:12.748Z,100301.66
2022-11-05T02:00:43.859Z,100303.77
2022-11-05T02:03:16.087Z,100308.85
2022-11-05T02:05:49.136Z,100312.90
2022-11-05T02:08:26.997Z,100314.87
2022-11-05T02:10:58.825Z,100319.96
2022-11-05T02:13:29.127Z,100317.34
2022-11-05T02:16:08.249Z,100320.20
2022-11-05T02:18:50.669Z,100324.56
2022-11-05T02:21:51.932Z,100321.74
2022-11-05T02:24:42.772Z,100324.70
2022-11-05T02:27:22.619Z,100326.83
2022-11-05T02:30:10.574Z,100326.35
2022-11-05T02:33:05.120Z,100326.12
2022-11-05T02:35:52.618Z,100328.79
2022-11-05T02:38:36.425Z,100331.30
2022-11-05T02:41:15.005Z,100333.61
2022-11-05T02:43:56.526Z,100335.91
2022-11-05T02:46:32.506Z,100334.58
2022-11-05T02:49:10.378Z,100338.11
2022-11-05T02:51:49.341Z,100339.95
2022-11-05T02:54:26.468Z,100343.32
2022-11-05T02:57:00.253Z,100345.77
2022-11-05T02:59:30.593Z,100345.06
2022-11-05T03:02:03.979Z,100345.23
2022-11-05T03:04:34.667Z,100347.87
2022-11-05T03:07:23.615Z,100352.10
2022-11-05T03:10:10.383Z,100352.27
2022-11-05T03:12:53.069Z,100357.52
2022-11-05T03:15:35.081Z,100360.89
2022-11-05T03:18:14.753Z,100364.27
2022-11-05T03:20:51.452Z,100365.55
2022-11-05T03:23:30.481Z,100363.09
2022-11-05T03:26:08.288Z,100366.58
2022-11-05T03:28:42.730Z,100371.02
2022-11-05T03:31:16.960Z,100375.94
2022-11-05T03:33:49.702Z,100372.44
2022-11-05T03:36:25.301Z,100377.89
2022-11-05T03:38:58.329Z,100381.45
2022-11-05T03:41:30.668Z,100387.45
2022-11-05T03:44:06.299Z,100391.02
2022-11-05T03:46:41.588Z,100392.79
2022-11-05T03:49:19.249Z,100395.97
2022-11-05T03:51:56.023Z,100401.64
2022-11-05T03:54:26.595Z,100406.77
2022-11-05T03:57:07.307Z,100409.46
2022-11-05T03:59:45.080Z,100416.51
2022-11-05T04:02:19.042Z,100422.65
2022-11-05T04:04:49.870Z,100420.20
2022-11-05T04:07:37.877Z,100419.84
2022-11-05T04:10:26.463Z,100425.63
2022-11-05T04:13:14.756Z,100428.75
2022-11-05T04:15:58.979Z,100429.63
2022-11-05T04:18:29.340Z,100428.02
2022-11-05T04:21:17.154Z,100427.64
2022-11-05T04:24:16.686Z,100427.19
2022-11-05T04:26:47.475Z,100428.22
2022-11-05T04:29:35.660Z,100430.18
2022-11-05T04:32:06.553Z,100434.02
2022-11-05T04:34:37.006Z,100436.88
2022-11-05T04:37:07.661Z,100437.59
2022-11-05T04:39:38.004Z,100438.32
2022-11-05T04:42:08.744Z,100437.66
2022-11-05T04:44:39.537Z,100440.83
2022-11-05T04:47:09.904Z,100441.02
2022-11-05T04:49:40.225Z,100447.58
2022-11-05T04:52:10.540Z,100447.11
2022-11-05T04:54:41.208Z,100450.10
2022-11-05T04:57:11.750Z,100450.69
2022-11-05T04:59:42.182Z,100454.20
2022-11-05T05:02:12.682Z,100455.34
2022-11-05T05:04:43.072Z,100460.08
2022-11-05T05:07:13.672Z,100460.05
2022-11-05T05:09:44.128Z,100459.15
2022-11-05T05:12:14.549Z,100461.20
2022-11-05T05:14:44.928Z,100463.55
2022-11-05T05:17:15.351Z,100469.92
2022-11-05T05:20:05.727Z,100468.74
2022-11-05T05:22:34.649Z,100475.46
2022-11-05T05:25:03.835Z,100477.77
2022-11-05T05:27:33.086Z,100482.17
2022-11-05T05:30:02.194Z,100482.56
2022-11-05T05:32:31.047Z,100487.48
2022-11-05T05:34:59.901Z,100491.27
2022-11-05T05:37:28.791Z,100495.42
2022-11-05T05:39:57.599Z,100494.31
2022-11-05T05:42:26.845Z,100498.60
2022-11-05T05:44:55.642Z,100500.93
2022-11-05T05:47:24.545Z,100501.91
2022-11-05T05:49:53.590Z,100507.74
2022-11-05T05:52:22.373Z,100510.05
2022-11-05T05:54:51.443Z,100517.86
2022-11-05T05:57:20.360Z,100523.71
2022-11-05T05:59:49.216Z,100524.30
2022-11-05T06:02:18.137Z,100532.06
2022-11-05T06:04:47.052Z,100534.60
2022-11-05T06:07:15.840Z,100539.73
2022-11-05T06:09:44.682Z,100543.29
2022-11-05T06:12:13.496Z,100545.08
2022-11-05T06:14:42.445Z,100546.41
2022-11-05T06:17:11.585Z,100551.17
2022-11-05T06:19:40.399Z,100558.73
2022-11-05T06:22:09.316Z,100559.30
2022-11-05T06:24:38.140Z,100562.86
2022-11-05T06:27:07.007Z,100565.02
2022-11-05T06:29:35.896Z,100566.15
2022-11-05T06:32:04.814Z,100570.95
2022-11-05T06:34:33.698Z,100575.39
2022-11-05T06:37:02.508Z,100578.21
2022-11-05T06:39:31.469Z,100583.69
2022-11-05T06:44:49.171Z,100592.83
2022-11-05T06:47:18.014Z,100595.48
2022-11-05T06:49:47.256Z,100602.68
2022-11-05T06:52:16.358Z,100604.23
2022-11-05T06:54:45.193Z,100602.84
2022-11-05T06:57:14.086Z,100605.73
2022-11-05T06:59:42.947Z,100614.62
2022-11-05T07:02:12.895Z,100617.59
2022-11-05T07:04:41.895Z,100623.91
2022-11-05T07:07:10.686Z,100626.73
2022-11-05T07:09:43.105Z,100631.99
2022-11-05T07:12:12.056Z,100632.11
2022-11-05T07:14:41.776Z,100637.12
2022-11-05T07:21:19.176Z,100643.46
2022-11-05T07:23:48.402Z,100647.05
2022-11-05T07:26:17.322Z,100652.27
2022-11-05T07:28:46.158Z,100659.41
2022-11-05T07:31:14.990Z,100660.98
2022-11-05T07:33:43.883Z,100673.74
2022-11-05T07:36:12.871Z,100675.67
2022-11-05T07:42:08.127Z,100678.44
2022-11-05T07:44:41.914Z,100683.99
2022-11-05T07:47:10.892Z,100685.71
2022-11-05T07:49:39.626Z,100688.27
2022-11-05T07:52:08.617Z,100693.31
2022-11-05T07:54:37.489Z,100693.44
2022-11-05T07:57:06.359Z,100697.60
2022-11-05T07:59:35.272Z,100701.63
2022-11-05T08:02:04.350Z,100701.59
2022-11-05T08:04:33.422Z,100706.27
2022-11-05T08:07:02.329Z,100709.19
2022-11-05T08:09:31.280Z,100712.56
2022-11-05T08:12:03.158Z,100713.52
2022-11-05T08:14:32.387Z,100724.10
2022-11-05T08:17:01.300Z,100726.49
2022-11-05T08:19:30.401Z,100730.89
2022-11-05T08:21:59.268Z,100728.38
2022-11-05T08:24:28.104Z,100730.80
2022-11-05T08:26:58.035Z,100730.90
2022-11-05T08:29:26.915Z,100730.35
2022-11-05T08:31:55.665Z,100730.86
2022-11-05T08:34:24.685Z,100731.85
2022-11-05T08:36:53.599Z,100739.06
2022-11-05T08:39:23.230Z,100745.21
2022-11-05T08:41:52.111Z,100748.83
2022-11-05T08:44:20.932Z,100749.64
2022-11-05T08:46:49.837Z,100750.10
2022-11-05T08:49:18.865Z,100749.67
2022-11-05T08:51:48.064Z,100752.33
2022-11-05T08:54:16.896Z,100752.89
2022-11-05T08:56:45.795Z,100749.06
2022-11-05T08:59:14.778Z,100748.36
2022-11-05T09:01:43.719Z,100747.71
2022-11-05T09:04:12.824Z,100749.52
2022-11-05T09:06:41.750Z,100751.59
2022-11-05T09:09:10.623Z,100759.28
2022-11-05T09:12:05.713Z,100756.17
2022-11-05T09:14:30.010Z,100757.48
2022-11-05T09:16:58.816Z,100762.27
2022-11-05T09:19:27.685Z,100761.60
2022-11-05T09:21:59.678Z,100762.94
2022-11-05T09:24:28.607Z,100762.59
2022-11-05T09:26:57.396Z,100767.30
2022-11-05T09:29:26.213Z,100765.95
2022-11-05T09:31:55.035Z,100764.91
2022-11-05T09:34:24.459Z,100766.80
2022-11-05T09:36:53.470Z,100766.94
2022-11-05T09:39:22.343Z,100768.38
2022-11-05T09:41:52.838Z,100776.93
2022-11-05T09:44:23.578Z,100778.70
2022-11-05T09:46:55.181Z,100779.98
2022-11-05T09:49:27.328Z,100780.83
2022-11-05T09:51:58.360Z,100785.08
2022-11-05T09:54:31.530Z,100792.66
2022-11-05T09:57:02.386Z,100791.80
2022-11-05T09:59:36.149Z,100792.45
2022-11-05T10:02:10.890Z,100798.91
2022-11-05T10:04:40.700Z,100799.23
2022-11-05T10:07:12.449Z,100802.99
2022-11-05T10:09:47.243Z,100801.41
2022-11-05T10:12:20.820Z,100806.49
2022-11-05T10:14:51.256Z,100808.31
2022-11-05T10:17:24.271Z,100814.38
2022-11-05T10:19:56.021Z,100815.69
2022-11-05T10:22:25.894Z,100816.11
2022-11-05T10:24:55.886Z,100819.77
2022-11-05T10:27:30.105Z,100821.08
2022-11-05T10:29:58.909Z,100820.59
2022-11-05T10:32:29.564Z,100824.02
2022-11-05T10:35:00.007Z,100826.44
2022-11-05T10:37:29.870Z,100826.29
2022-11-05T10:39:58.903Z,100826.34
2022-11-05T10:42:34.886Z,100826.64
2022-11-05T10:45:08.950Z,100826.94
2022-11-05T10:47:44.632Z,100830.27
2022-11-05T10:50:14.471Z,100822.98
2022-11-05T10:52:50.202Z,100822.73
2022-11-05T10:55:22.041Z,100819.66
2022-11-05T10:57:51.414Z,100820.80
2022-11-05T11:00:21.641Z,100822.63
2022-11-05T11:02:51.342Z,100822.85
2022-11-05T11:05:23.024Z,100823.83
2022-11-05T11:07:57.521Z,100822.76
2022-11-05T11:10:27.099Z,100819.14
2022-11-05T11:12:56.395Z,100823.38
2022-11-05T11:15:27.464Z,100822.31
2022-11-05T11:17:56.782Z,100821.30
2022-11-05T11:20:27.867Z,100821.30
2022-11-05T11:23:04.213Z,100819.75
2022-11-05T11:25:38.778Z,100820.55
2022-11-05T11:28:11.976Z,100821.39
2022-11-05T11:30:40.882Z,100819.66
2022-11-05T11:33:10.505Z,100817.00
2022-11-05T11:35:39.868Z,100810.43
2022-11-05T11:38:15.579Z,100808.84
2022-11-05T11:40:44.856Z,100806.41
2022-11-05T11:43:21.614Z,100806.28
2022-11-05T11:45:52.401Z,100806.95
2022-11-05T11:48:26.420Z,100802.39
2022-11-05T11:50:56.006Z,100802.87
2022-11-05T11:53:28.018Z,100799.91
2022-11-05T11:56:01.678Z,100801.02
2022-11-05T11:58:41.959Z,100798.35
2022-11-05T12:01:26.044Z,100796.43
2022-11-05T12:04:00.504Z,100799.39
2022-11-05T12:06:32.984Z,100800.49
2022-11-05T12:09:07.106Z,100802.02
2022-11-05T12:11:40.303Z,100802.13
2022-11-05T12:14:18.708Z,100799.45
2022-11-05T12:17:00.327Z,100799.60
2022-11-05T12:19:42.110Z,100801.17
2022-11-05T12:22:20.113Z,100799.31
2022-11-05T12:24:56.477Z,100802.02
2022-11-05T12:27:34.428Z,100795.41
2022-11-05T12:30:06.103Z,100796.08
2022-11-05T12:33:00.578Z,100796.80
2022-11-05T12:35:45.750Z,100797.30
2022-11-05T12:38:22.802Z,100796.15
2022-11-05T12:40:58.505Z,100790.00
2022-11-05T12:43:33.858Z,100783.57
2022-11-05T12:46:05.217Z,100783.14
2022-11-05T12:48:43.333Z,100775.73
2022-11-05T12:51:19.255Z,100772.71
2022-11-05T12:53:52.963Z,100773.12
2022-11-05T12:56:26.296Z,100774.27
2022-11-05T12:58:59.669Z,100774.41
2022-11-05T13:01:33.158Z,100774.80
2022-11-05T13:04:06.699Z,100774.22
2022-11-05T13:06:39.706Z,100779.77
2022-11-05T13:09:12.302Z,100780.79
2022-11-05T13:11:45.154Z,100785.31
2022-11-05T13:14:15.645Z,100791.52
2022-11-05T13:16:47.322Z,100790.06
2022-11-05T13:19:18.595Z,100794.84
2022-11-05T13:21:51.017Z,100797.21
2022-11-05T13:24:21.557Z,100797.61
2022-11-05T13:26:53.712Z,100795.64
2022-11-05T13:29:26.428Z,100793.60
2022-11-05T13:31:58.886Z,100788.77
2022-11-05T13:34:27.778Z,100790.63
2022-11-05T13:37:16.197Z,100792.31
2022-11-05T13:39:47.728Z,100791.55
2022-11-05T13:42:38.118Z,100790.86
2022-11-05T13:45:22.411Z,100786.96
2022-11-05T13:47:56.940Z,100790.55
2022-11-05T13:50:46.082Z,100793.13
2022-11-05T13:53:35.765Z,100794.69
2022-11-05T13:56:11.082Z,100799.34
2022-11-05T13:58:48.385Z,100805.29
2022-11-05T14:01:22.783Z,100808.39
2022-11-05T14:03:52.565Z,100815.27
2022-11-05T14:06:26.197Z,100814.05
2022-11-05T14:08:57.631Z,100817.40
2022-11-05T14:11:28.159Z,100823.25
2022-11-05T14:13:58.179Z,100822.09
2022-11-05T14:16:29.462Z,100820.49
2022-11-05T14:19:23.383Z,100815.80
2022-11-05T14:21:53.237Z,100818.97
2022-11-05T14:24:39.775Z,100821.20
2022-11-05T14:27:25.821Z,100825.85
2022-11-05T14:29:54.777Z,100822.17
2022-11-05T14:32:26.926Z,100818.71
2022-11-05T14:34:57.310Z,100822.57
2022-11-05T14:37:28.011Z,100822.73
2022-11-05T14:39:57.408Z,100823.36
2022-11-05T14:42:30.466Z,100819.64
2022-11-05T14:45:01.940Z,100814.48
2022-11-05T14:47:32.728Z,100813.14
2022-11-05T14:50:04.516Z,100816.22
2022-11-05T14:52:33.817Z,100821.30
2022-11-05T14:55:03.662Z,100818.79
2022-11-05T14:57:50.707Z,100817.58
2022-11-05T15:00:36.516Z,100819.91
2022-11-05T15:03:25.533Z,100818.98
2022-11-05T15:06:04.167Z,100818.87
2022-11-05T15:08:37.492Z,100824.02
2022-11-05T15:11:12.455Z,100826.42
2022-11-05T15:13:49.087Z,100825.17
2022-11-05T15:16:20.636Z,100826.77
2022-11-05T15:18:49.721Z,100834.02
2022-11-05T15:21:19.619Z,100840.45
2022-11-05T15:23:49.731Z,100844.36
2022-11-05T15:26:23.239Z,100851.02
2022-11-05T15:28:52.728Z,100852.50
2022-11-05T15:31:26.462Z,100846.48
2022-11-05T15:34:10.596Z,100843.18
2022-11-05T15:36:39.572Z,100840.73
2022-11-05T15:39:29.557Z,100839.63
2022-11-05T15:41:59.863Z,100839.38
2022-11-05T15:44:30.055Z,100836.71
2022-11-05T15:47:09.360Z,100843.52
2022-11-05T15:49:38.373Z,100845.65
2022-11-05T15:52:09.146Z,100846.52
2022-11-05T15:54:38.339Z,100851.41
2022-11-05T15:57:16.119Z,100855.95
2022-11-05T16:03:00.746Z,100859.63
2022-11-05T16:05:31.239Z,100854.98
2022-11-05T16:08:00.698Z,100853.67
2022-11-05T16:10:32.047Z,100853.91
2022-11-05T16:13:14.581Z,100859.46
2022-11-05T16:15:53.642Z,100857.13
2022-11-05T16:18:24.415Z,100865.32
2022-11-05T16:21:04.438Z,100869.67
2022-11-05T16:23:44.330Z,100867.80
2022-11-05T16:26:55.976Z,100864.25
2022-11-05T16:29:17.499Z,100864.48
2022-11-05T16:31:51.088Z,100864.21
2022-11-05T16:34:25.701Z,100864.74
2022-11-05T16:36:56.424Z,100864.86
2022-11-05T16:39:25.458Z,100866.23
2022-11-05T16:41:54.282Z,100869.50
2022-11-05T16:44:23.082Z,100868.89
2022-11-05T16:46:52.069Z,100871.20
2022-11-05T16:49:21.712Z,100875.77
2022-11-05T16:51:50.668Z,100875.45
2022-11-05T16:54:19.456Z,100876.17
2022-11-05T16:56:48.229Z,100874.06
2022-11-05T16:59:17.217Z,100871.73
2022-11-05T17:01:49.261Z,100873.66
2022-11-05T17:04:20.524Z,100875.19
2022-11-05T17:06:49.925Z,100881.51
2022-11-05T17:09:18.925Z,100889.88
2022-11-05T17:11:47.808Z,100898.27
2022-11-05T17:14:16.809Z,100905.80
2022-11-05T17:16:45.705Z,100915.08
2022-11-05T17:19:16.396Z,100919.10
2022-11-05T17:21:45.304Z,100921.37
2022-11-05T17:24:14.052Z,100922.21
2022-11-05T17:26:42.920Z,100924.66
2022-11-05T17:29:11.699Z,100928.52
2022-11-05T17:31:41.571Z,100935.81
2022-11-05T17:34:11.244Z,100938.40
2022-11-05T17:36:40.080Z,100946.12
2022-11-05T17:39:10.877Z,100948.77
2022-11-05T17:41:39.643Z,100951.21
2022-11-05T17:44:10.275Z,100954.56
2022-11-05T17:46:39.046Z,100961.59
2022-11-05T17:49:08.016Z,100958.08
2022-11-05T17:51:36.924Z,100953.88
2022-11-05T17:54:07.647Z,100955.80
2022-11-05T17:56:43.261Z,100955.88
2022-11-05T17:59:13.228Z,100946.34
2022-11-05T18:01:43.766Z,100943.42
2022-11-05T18:04:13.439Z,100943.50
2022-11-05T18:06:42.451Z,100946.34
2022-11-05T18:09:11.681Z,100949.04
2022-11-05T18:11:40.967Z,100949.59
2022-11-05T18:14:09.779Z,100951.93
2022-11-05T18:16:38.653Z,100954.43
2022-11-05T18:19:07.426Z,100956.02
2022-11-05T18:21:36.255Z,100957.95
2022-11-05T18:24:05.512Z,100963.77
2022-11-05T18:26:34.842Z,100957.36
2022-11-05T18:29:04.734Z,100956.02
2022-11-05T18:31:33.628Z,100966.77
2022-11-05T18:34:02.470Z,100968.23
2022-11-05T18:36:31.960Z,100966.71
2022-11-05T18:39:02.227Z,100971.34
2022-11-05T18:41:31.083Z,100968.09
2022-11-05T18:44:03.414Z,100967.81
2022-11-05T18:49:22.288Z,100969.88
2022-11-05T18:51:51.357Z,100966.23
2022-11-05T18:54:20.228Z,100965.02
2022-11-05T18:56:49.027Z,100961.41
2022-11-05T18:59:36.787Z,100957.05
2022-11-05T19:02:07.022Z,100949.76
2022-11-05T19:04:37.518Z,100956.09
2022-11-05T19:07:07.320Z,100954.92
2022-11-05T19:09:36.663Z,100963.73
2022-11-05T19:12:07.083Z,100966.05
2022-11-05T19:14:36.284Z,100970.09
2022-11-05T19:17:05.154Z,100976.22
2022-11-05T19:19:34.246Z,100975.39
2022-11-05T19:22:06.026Z,100974.22
2022-11-05T19:24:36.078Z,100978.95
2022-11-05T19:27:05.103Z,100978.77
2022-11-05T19:29:34.143Z,100978.61
2022-11-05T19:32:03.711Z,100981.96
2022-11-05T19:34:32.649Z,100981.08
2022-11-05T19:37:01.723Z,100977.25
2022-11-05T19:39:30.788Z,100979.18
2022-11-05T19:42:04.018Z,100974.14
2022-11-05T19:44:33.891Z,100977.48
2022-11-05T19:47:02.698Z,100976.28
2022-11-05T19:49:31.985Z,100975.43
2022-11-05T19:52:00.929Z,100976.71
2022-11-05T19:54:30.127Z,100976.71
2022-11-05T19:56:59.747Z,100979.55
2022-11-05T19:59:28.957Z,100978.91
2022-11-05T20:01:58.042Z,100978.08
2022-11-05T20:04:27.112Z,100977.73
2022-11-05T20:06:56.042Z,100978.34
2022-11-05T20:09:25.063Z,100973.14
2022-11-05T20:11:54.949Z,100974.92
2022-11-05T20:14:25.077Z,100974.26
2022-11-05T20:16:54.447Z,100970.96
2022-11-05T20:19:24.124Z,100975.20
2022-11-05T20:21:53.353Z,100973.65
2022-11-05T20:24:25.368Z,100975.23
2022-11-05T20:26:56.189Z,100980.15
2022-11-05T20:29:30.587Z,100974.60
2022-11-05T20:32:04.089Z,100976.40
2022-11-05T20:34:33.737Z,100977.65
2022-11-05T20:37:02.756Z,100975.23
2022-11-05T20:39:31.636Z,100974.73
2022-11-05T20:42:01.376Z,100973.56
2022-11-05T20:44:30.207Z,100973.08
2022-11-05T20:46:59.144Z,100971.70
2022-11-05T20:49:28.069Z,100970.69
2022-11-05T20:51:57.620Z,100971.39
2022-11-05T20:54:26.624Z,100971.61
2022-11-05T20:56:55.723Z,100972.16
2022-11-05T20:59:24.707Z,100975.15
2022-11-05T21:01:54.034Z,100977.13
2022-11-05T21:04:23.116Z,100974.50
2022-11-05T21:06:53.302Z,100975.77
2022-11-05T21:09:22.129Z,100977.38
2022-11-05T21:12:09.020Z,100981.40
2022-11-05T21:14:38.141Z,100979.84
2022-11-05T21:17:07.652Z,100973.58
2022-11-05T21:19:36.815Z,100976.56
2022-11-05T21:22:06.608Z,100973.61
2022-11-05T21:24:35.876Z,100980.41
2022-11-05T21:27:05.293Z,100977.63
2022-11-05T21:29:34.275Z,100972.02
2022-11-05T21:32:03.195Z,100967.67
2022-11-05T21:34:34.460Z,100972.21
2022-11-05T21:37:03.336Z,100973.27
2022-11-05T21:39:34.071Z,100974.15
2022-11-05T21:42:03.151Z,100967.34
2022-11-05T21:44:32.155Z,100966.98
2022-11-05T21:47:01.089Z,100962.44
2022-11-05T21:49:29.983Z,100961.73
2022-11-05T21:52:16.545Z,100961.23
2022-11-05T21:55:03.315Z,100961.56
2022-11-05T21:57:50.272Z,100961.56
2022-11-05T22:00:19.522Z,100959.63
2022-11-05T22:02:48.803Z,100963.77
2022-11-05T22:05:18.360Z,100967.59
2022-11-05T22:07:47.370Z,100964.59
2022-11-05T22:10:17.251Z,100966.45
2022-11-05T22:12:46.633Z,100961.86
2022-11-05T22:15:15.679Z,100960.77
2022-11-05T22:17:47.176Z,100958.49
2022-11-05T22:20:16.919Z,100960.59
2022-11-05T22:22:45.802Z,100959.36
2022-11-05T22:25:15.069Z,100959.90
2022-11-05T22:27:44.652Z,100960.60
2022-11-05T22:30:14.739Z,100964.63
2022-11-05T22:32:43.705Z,100965.85
2022-11-05T22:35:12.610Z,100969.64
2022-11-05T22:37:41.592Z,100964.74
2022-11-05T22:40:10.985Z,100965.98
2022-11-05T22:42:39.929Z,100967.56
2022-11-05T22:45:09.712Z,100963.88
2022-11-05T22:47:38.637Z,100959.85
2022-11-05T22:50:08.463Z,100959.30
2022-11-05T22:52:37.390Z,100958.07
2022-11-05T22:55:06.667Z,100959.44
2022-11-05T22:57:35.564Z,100959.08
2022-11-05T23:00:06.722Z,100963.58
2022-11-05T23:02:35.879Z,100966.88
2022-11-05T23:05:04.936Z,100968.23
2022-11-05T23:07:51.451Z,100967.35
2022-11-05T23:10:38.208Z,100964.58
2022-11-05T23:13:07.939Z,100967.55
2022-11-05T23:15:54.401Z,100961.29
2022-11-05T23:18:40.958Z,100961.48
2022-11-05T23:21:27.899Z,100959.04
2022-11-05T23:24:05.442Z,100953.61
2022-11-05T23:26:53.943Z,100953.60
2022-11-05T23:29:23.883Z,100950.70
2022-11-05T23:32:10.585Z,100950.55
2022-11-05T23:34:39.601Z,100945.52
2022-11-05T23:37:26.441Z,100946.75
2022-11-05T23:39:55.396Z,100946.27
2022-11-05T23:42:42.809Z,100945.58
2022-11-05T23:45:29.971Z,100941.25
2022-11-05T23:48:16.386Z,100941.45
2022-11-05T23:50:46.836Z,100938.20
2022-11-05T23:53:15.808Z,100935.43
2022-11-05T23:55:44.909Z,100930.58
2022-11-05T23:58:14.519Z,100935.30
